Ramsey, IL

7:07 PM CST on March 03, 2015 (GMT -0600)
Effingham | Change Station
CLOSE
Current Station
Airport
Location: Effingham,
Elevation: 587 ft
Nearby Weather Stations

Elev 587 ft 39.07 °N, 88.53 °W | Updated 12 minutes ago

Overcast
Overcast
38 °F
Feels Like 34 °F
N
5
Wind Variable Wind from SSW

Today
High -- | Low -- °F
--% Chance of Precip.
Yesterday
High -- | Low -- °F
Precip. -- in
6:26 AM 5:50 PM
Waxing Gibbous, 97% visible
Pressure 29.88 in
Visibility 0.2 miles
Clouds Overcast 300 ft
Windchill 34 °F
Dew Point 36 °F
Humidity 93%
Rainfall 0.05 in
Snow Depth Not available.
UV 0 out of 12
Pollen .50 out of 12
Air Quality Not available.
Flu Activity Not available.
METAR K1H2 040055Z AUTO 21004KT 1/4SM FG OVC003 03/02 A2988 RMK AO2 T00330022

More Conditions Fewer Conditions

Pressure 29.88 in
Visibility 0.2 miles
Clouds Overcast 300 ft
Windchill 34 °F
Dew Point 36 °F
Humidity 93%
Rainfall 0.05 in
Snow Depth Not available.
UV 0 out of 12
Pollen .50 out of 12
Air Quality Not available.
Flu Activity Not available.
METAR K1H2 040055Z AUTO 21004KT 1/4SM FG OVC003 03/02 A2988 RMK AO2 T00330022

More Conditions Fewer Conditions

10-Day Weather Forecast

Almanac

Astronomy

Mar. 03, 2015 Rise Set
Actual Time
Civil Twilight
Nautical Twilight
Astronomical Twilight
Moon
Length of Visible Light
Length of Day
Tomorrow will be .
, % of the Moon is Illuminated

Today's Extremes

State Highs State Lows

Community

WunderPhotos

Upload Photos

1,802,340 photos uploaded!

WunderBlogs® & News

Nearby

Air Quality

  Air Quality AQ Index Pollutant
Not available.

Snow Depth

Station Depth Elevation

Earthquake Activity

City Distance Mag. Time & Date
Minimum magnitude displayed is 2.5.

Coastal Water Temperatures

Place Temperature

Nearby Weather Stations